createdAt,value
2022-09-03T00:03:48.131Z,2750.08325
2022-09-03T00:18:50.353Z,2903.49976
2022-09-03T00:33:52.601Z,2751.35132
2022-09-03T00:48:55.615Z,2125.00684
2022-09-03T01:03:59.213Z,1621.64893
2022-09-03T01:19:01.517Z,1194.36536
2022-09-03T01:34:03.721Z,1053.62805
2022-09-03T01:49:05.923Z,741.72375
2022-09-03T02:04:08.107Z,432.35519
2022-09-03T02:19:10.331Z,176.23863
2022-09-03T02:34:12.593Z,55.78777
2022-09-03T02:49:14.964Z,7.60742
2022-09-03T03:04:17.119Z,0
2022-09-03T03:19:19.321Z,0
2022-09-03T03:34:21.655Z,0
2022-09-03T03:49:23.823Z,0
2022-09-03T04:04:26.036Z,0
2022-09-03T04:19:28.328Z,0
2022-09-03T04:34:30.568Z,0
2022-09-03T04:49:32.795Z,0
2022-09-03T05:04:35.115Z,0
2022-09-03T05:19:37.446Z,0
2022-09-03T05:34:39.624Z,0
2022-09-03T05:49:41.875Z,0
2022-09-03T06:04:44.294Z,0
2022-09-03T06:19:46.566Z,0
2022-09-03T06:34:48.743Z,0
2022-09-03T06:49:50.936Z,0
2022-09-03T07:04:53.090Z,0
2022-09-03T07:19:56.548Z,0
2022-09-03T07:34:58.760Z,0
2022-09-03T07:50:00.981Z,0
2022-09-03T08:05:03.170Z,0
2022-09-03T08:20:05.529Z,0
2022-09-03T08:35:07.740Z,0
2022-09-03T08:50:10.099Z,0
2022-09-03T09:05:14.326Z,0
2022-09-03T09:20:16.821Z,0
2022-09-03T09:35:19.050Z,0
2022-09-03T09:50:26.036Z,0
2022-09-03T10:05:28.791Z,0
2022-09-03T10:20:31.110Z,0
2022-09-03T10:35:33.360Z,0
2022-09-03T10:50:35.548Z,0
2022-09-03T11:05:37.900Z,0
2022-09-03T11:20:40.093Z,0
2022-09-03T11:35:42.312Z,0
2022-09-03T11:50:44.700Z,0
2022-09-03T12:05:47.566Z,0
2022-09-03T12:20:49.807Z,0
2022-09-03T12:36:00.023Z,1.2679
2022-09-03T12:51:47.949Z,10.14323
2022-09-03T13:06:52.027Z,72.27052
2022-09-03T13:21:54.198Z,211.73993
2022-09-03T13:36:56.414Z,466.58859
2022-09-03T13:51:58.662Z,774.68921
2022-09-03T14:07:00.847Z,1151.25671
2022-09-03T14:22:03.007Z,5206.01318
2022-09-03T14:37:05.260Z,2913.64282
2022-09-03T14:52:07.657Z,6875.84229
2022-09-03T15:07:09.869Z,20406.91211
2022-09-03T15:22:12.080Z,7997.93701
2022-09-03T15:37:14.418Z,4629.1167
2022-09-03T15:52:16.612Z,7857.19971
2022-09-03T16:07:18.819Z,6615.92188
2022-09-03T16:22:21.008Z,8994.50977
2022-09-03T16:37:23.220Z,10219.30469
2022-09-03T16:52:37.863Z,5812.0708
2022-09-03T17:07:40.753Z,6191.17432
2022-09-03T17:22:43.013Z,9302.61035
2022-09-03T17:37:45.211Z,12109.74902
2022-09-03T17:52:47.566Z,13802.40039
2022-09-03T18:07:49.925Z,13148.16211
2022-09-03T18:22:52.087Z,12509.13867
2022-09-03T18:37:54.290Z,11278.00391
2022-09-03T18:52:56.570Z,10767.03906
2022-09-03T19:07:59.960Z,9788.21777
2022-09-03T19:23:02.461Z,10845.64941
2022-09-03T19:38:04.695Z,9419.25781
2022-09-03T19:53:07.115Z,8268.00098
2022-09-03T20:08:09.405Z,6700.87158
2022-09-03T20:23:11.638Z,4731.81689
2022-09-03T20:38:13.884Z,5202.20947
2022-09-03T20:53:16.110Z,5960.41602
2022-09-03T21:08:18.322Z,3949.52026
2022-09-03T21:23:20.526Z,3725.10132
2022-09-03T21:38:22.812Z,5069.07959
2022-09-03T21:53:25.091Z,5331.53564
2022-09-03T22:08:27.465Z,4114.34766
2022-09-03T22:23:29.803Z,5042.45361
2022-09-03T22:38:32.006Z,8041.0459
2022-09-03T22:53:34.388Z,2544.68286
2022-09-03T23:08:36.723Z,1645.73914
2022-09-03T23:23:39.197Z,1393.42627
2022-09-03T23:38:41.535Z,1768.72583
2022-09-03T23:53:43.932Z,1671.09717
